Time;durP1;ratioP1;P1;durP2;ratioP2;P2;SDS_P1;SDS_P2;PMS_P1;PMS_P2;Temp;Humidity;BMP_temperature;BMP_pressure;BME280_temperature;BME280_humidity;BME280_pressure;Samples;Min_cycle;Max_cycle;Signal;HPM_P1;HPM_P2
2023/03/11 00:00:27;;;;;;;0.00;0.00;;;;;;;6.55;53.02;100208.06;7355875;19;20006;-59
2023/03/11 00:02:54;;;;;;;0.10;0.10;;;;;;;6.55;52.55;100202.88;7355426;19;20578;-59
2023/03/11 00:05:32;;;;;;;0.00;0.00;;;;;;;6.45;52.95;100182.25;7355382;19;20043;-59
2023/03/11 00:07:57;;;;;;;;;;;;;;;6.59;51.53;100199.34;7353526;19;20017;-59
2023/03/11 00:10:26;;;;;;;0.00;0.00;;;;;;;6.58;53.24;100203.66;7351369;19;20002;-59
2023/03/11 00:12:52;;;;;;;0.00;0.00;;;;;;;6.57;52.51;100189.00;7355649;19;20007;-59
2023/03/11 00:15:18;;;;;;;0.00;0.00;;;;;;;6.56;52.85;100194.22;7357014;19;20110;-59
2023/03/11 00:17:43;;;;;;;0.10;0.10;;;;;;;6.56;52.57;100209.78;7356238;19;20017;-59
2023/03/11 00:20:19;;;;;;;0.10;0.10;;;;;;;6.57;53.23;100201.97;7355896;19;20010;-59
2023/03/11 00:22:44;;;;;;;0.00;0.00;;;;;;;6.56;54.35;100194.22;7357895;19;20018;-59
2023/03/11 00:25:11;;;;;;;0.00;0.00;;;;;;;6.57;53.18;100195.94;7349263;19;20015;-59
2023/03/11 00:27:37;;;;;;;0.00;0.00;;;;;;;6.58;53.68;100192.44;7355956;19;20014;-59
2023/03/11 00:30:03;;;;;;;0.00;0.00;;;;;;;6.52;52.84;100180.41;7348461;19;20014;-60
2023/03/11 00:32:29;;;;;;;0.00;0.00;;;;;;;6.55;53.59;100182.97;7353252;19;20889;-59
2023/03/11 00:34:54;;;;;;;0.00;0.00;;;;;;;6.57;53.47;100181.22;7343988;19;20010;-59
2023/03/11 00:37:19;;;;;;;0.00;0.00;;;;;;;6.58;53.50;100177.72;7349029;19;20018;-59
2023/03/11 00:39:45;;;;;;;0.00;0.00;;;;;;;6.58;53.71;100182.06;7346296;19;20027;-59
2023/03/11 00:42:10;;;;;;;0.05;0.05;;;;;;;6.58;53.59;100176.88;7347320;19;20560;-59
2023/03/11 00:44:36;;;;;;;0.00;0.00;;;;;;;6.56;53.62;100178.66;7351350;19;20018;-59
2023/03/11 00:47:01;;;;;;;0.00;0.00;;;;;;;6.14;52.99;100113.56;7347813;19;20014;-59
2023/03/11 00:49:26;;;;;;;0.00;0.00;;;;;;;6.62;53.51;100194.13;7351734;19;20021;-59
2023/03/11 00:51:52;;;;;;;0.00;0.00;;;;;;;6.58;53.72;100174.28;7350751;19;20006;-59
2023/03/11 00:54:17;;;;;;;0.00;0.00;;;;;;;6.63;53.51;100180.25;7346922;19;20869;-59
2023/03/11 00:56:43;;;;;;;0.00;0.00;;;;;;;6.63;53.31;100180.25;7352938;19;20034;-59
2023/03/11 00:59:08;;;;;;;0.00;0.00;;;;;;;6.64;53.93;100187.16;7348781;19;20383;-59
2023/03/11 01:01:34;;;;;;;0.00;0.00;;;;;;;6.37;53.66;100139.16;7348125;19;20804;-60
2023/03/11 01:03:59;;;;;;;0.00;0.00;;;;;;;6.66;53.72;100185.41;7349452;19;20010;-59
2023/03/11 01:06:24;;;;;;;0.03;0.03;;;;;;;6.65;54.47;100174.19;7354388;19;20006;-59
2023/03/11 01:08:50;;;;;;;0.10;0.10;;;;;;;6.66;54.41;100172.44;7348133;19;20017;-59
2023/03/11 01:11:15;;;;;;;0.00;0.00;;;;;;;6.64;53.08;100171.59;7346169;19;20015;-59
2023/03/11 01:13:41;;;;;;;0.00;0.00;;;;;;;6.66;53.05;100169.84;7352043;19;20002;-59
2023/03/11 01:16:07;;;;;;;0.05;0.05;;;;;;;6.67;53.03;100174.16;7355018;19;20010;-59
2023/03/11 01:18:33;;;;;;;0.10;0.10;;;;;;;6.67;53.75;100177.59;7353018;19;20229;-59
2023/03/11 01:20:58;;;;;;;0.10;0.10;;;;;;;6.64;53.50;100167.28;7353523;19;20006;-59
2023/03/11 01:23:24;;;;;;;0.00;0.00;;;;;;;6.65;53.52;100163.81;7348767;19;20010;-59
2023/03/11 01:25:49;;;;;;;0.00;0.00;;;;;;;6.65;54.76;100163.81;7356478;19;20014;-59
2023/03/11 01:28:15;;;;;;;0.00;0.00;;;;;;;6.66;54.63;100160.31;7354219;19;20018;-60
2023/03/11 01:30:41;;;;;;;0.00;0.00;;;;;;;6.65;54.21;100153.44;7354215;19;20018;-59
2023/03/11 01:33:12;;;;;;;0.00;0.00;;;;;;;6.65;54.69;100143.06;7345324;19;20010;-59
2023/03/11 01:35:38;;;;;;;0.08;0.08;;;;;;;6.64;55.95;100141.34;7351698;19;20036;-59
2023/03/11 01:38:04;;;;;;;0.00;0.00;;;;;;;6.53;54.77;100132.00;7350841;19;20025;-59
2023/03/11 01:40:39;;;;;;;0.00;0.00;;;;;;;6.64;54.66;100140.47;7352724;19;20463;-59
2023/03/11 01:43:25;;;;;;;0.00;0.00;;;;;;;6.62;54.72;100144.81;7349396;19;20129;-59
2023/03/11 01:45:50;;;;;;;0.00;0.00;;;;;;;6.62;54.34;100147.41;7353393;19;20031;-59
2023/03/11 01:48:16;;;;;;;0.10;0.10;;;;;;;6.48;54.70;100127.72;7352342;19;20126;-60
2023/03/11 01:50:49;;;;;;;0.10;0.10;;;;;;;6.61;54.43;100137.94;7350942;19;20011;-60
2023/03/11 01:53:16;;;;;;;0.08;0.08;;;;;;;6.57;55.30;100138.84;7351926;19;20017;-59
2023/03/11 01:55:43;;;;;;;0.10;0.10;;;;;;;6.58;54.64;100125.84;7348863;19;20078;-60
2023/03/11 01:58:13;;;;;;;0.10;0.10;;;;;;;6.58;54.41;100130.19;7353613;19;20745;-59
2023/03/11 02:00:41;;;;;;;0.10;0.10;;;;;;;6.50;54.76;100112.16;7351489;19;20050;-59
2023/03/11 02:03:35;;;;;;;0.10;0.10;;;;;;;6.57;54.88;100112.91;7351814;19;20815;-59
2023/03/11 02:06:10;;;;;;;0.00;0.00;;;;;;;6.45;55.86;100099.25;7252830;19;2004227;-59
2023/03/11 02:08:36;;;;;;;0.00;0.00;;;;;;;6.50;54.69;100122.53;7355429;19;20048;-59
2023/03/11 02:11:06;;;;;;;0.03;0.03;;;;;;;6.48;54.81;100122.53;7353752;19;20682;-59
2023/03/11 02:13:34;;;;;;;0.10;0.10;;;;;;;6.49;54.83;100132.06;7358159;19;20097;-59
2023/03/11 02:16:00;;;;;;;0.10;0.10;;;;;;;6.46;55.40;100124.31;7353895;19;20090;-59
2023/03/11 02:18:26;;;;;;;0.00;0.00;;;;;;;6.45;54.62;100129.53;7362913;19;20619;-59
2023/03/11 02:21:30;;;;;;;0.00;0.00;;;;;;;6.45;54.27;100130.38;7357932;19;20014;-59
2023/03/11 02:24:03;;;;;;;0.00;0.00;;;;;;;6.41;54.81;100139.09;7259700;19;2004451;-60
2023/03/11 02:26:55;;;;;;;0.00;0.00;;;;;;;6.41;54.17;100144.28;7359941;19;20421;-59
2023/03/11 02:29:21;;;;;;;0.03;0.03;;;;;;;6.37;54.76;100132.22;7258863;19;2004562;-59
2023/03/11 02:31:47;;;;;;;0.10;0.10;;;;;;;6.36;54.93;100135.69;7359860;19;20010;-59
2023/03/11 02:34:20;;;;;;;0.00;0.00;;;;;;;6.34;54.77;100137.47;7361697;19;20006;-60
2023/03/11 02:36:45;;;;;;;0.00;0.00;;;;;;;6.34;55.04;100128.84;7357750;19;20027;-59
2023/03/11 02:39:11;;;;;;;0.00;0.00;;;;;;;6.34;55.25;100123.66;7361635;19;20723;-59
2023/03/11 02:41:40;;;;;;;0.10;0.10;;;;;;;6.33;55.55;100122.78;7358504;19;21080;-59
2023/03/11 02:44:09;;;;;;;0.10;0.10;;;;;;;6.32;55.14;100122.81;7360905;19;20003;-59
2023/03/11 02:46:37;;;;;;;0.00;0.00;;;;;;;6.29;55.51;100118.53;7356544;19;20016;-59
2023/03/11 02:49:03;;;;;;;;;;;;;;;6.35;54.14;100122.78;7356423;19;20119;-59
2023/03/11 02:51:28;;;;;;;0.00;0.00;;;;;;;6.32;55.29;100123.66;7361604;19;19936;-59
2023/03/11 02:53:58;;;;;;;0.00;0.00;;;;;;;6.23;55.10;100110.81;7360577;19;20090;-60
2023/03/11 02:56:24;;;;;;;0.00;0.00;;;;;;;6.29;55.43;100122.88;7360943;19;20917;-60
2023/03/11 02:58:49;;;;;;;0.00;0.00;;;;;;;6.31;55.54;100121.94;7342218;19;20018;-59
2023/03/11 03:01:15;;;;;;;0.00;0.00;;;;;;;6.30;55.79;100125.44;7360102;19;20831;-59
2023/03/11 03:03:40;;;;;;;0.00;0.00;;;;;;;6.31;56.10;100118.50;7350771;19;20031;-59
2023/03/11 03:06:06;;;;;;;0.00;0.00;;;;;;;6.30;56.29;100114.19;7355773;19;21156;-59
2023/03/11 03:08:31;;;;;;;0.10;0.10;;;;;;;6.26;56.33;100097.81;7353065;19;20014;-59
2023/03/11 03:10:58;;;;;;;0.00;0.00;;;;;;;6.32;56.60;100115.88;7356119;19;20027;-59
2023/03/11 03:13:24;;;;;;;0.00;0.00;;;;;;;6.32;56.35;100118.47;7353899;19;20014;-60
2023/03/11 03:15:50;;;;;;;0.00;0.00;;;;;;;6.34;56.26;100121.91;7358913;19;20026;-59
2023/03/11 03:18:15;;;;;;;0.10;0.10;;;;;;;6.31;56.16;100123.69;7352664;19;20422;-59
2023/03/11 03:20:41;;;;;;;0.00;0.00;;;;;;;6.34;56.59;100123.66;7353957;19;20015;-59
2023/03/11 03:23:06;;;;;;;0.00;0.00;;;;;;;6.34;57.33;100129.69;7357586;19;20022;-59
2023/03/11 03:25:32;;;;;;;0.10;0.10;;;;;;;6.34;57.89;100132.28;7355282;19;20007;-59
2023/03/11 03:27:57;;;;;;;0.00;0.00;;;;;;;6.32;57.30;100128.84;7356782;19;20471;-59
2023/03/11 03:30:22;;;;;;;0.00;0.00;;;;;;;6.34;57.21;100134.03;7358227;19;20010;-59
2023/03/11 03:32:48;;;;;;;0.10;0.10;;;;;;;6.32;57.60;100131.44;7355327;19;20736;-59
2023/03/11 03:35:13;;;;;;;0.00;0.00;;;;;;;6.34;57.36;100134.88;7350921;19;20014;-59
2023/03/11 03:37:39;;;;;;;0.03;0.03;;;;;;;6.34;57.34;100129.69;7358540;19;20017;-59
2023/03/11 03:40:06;;;;;;;0.10;0.10;;;;;;;6.34;57.60;100121.91;7353093;19;20017;-60
2023/03/11 03:42:33;;;;;;;0.00;0.00;;;;;;;6.34;58.03;100114.13;7358684;19;20014;-60
2023/03/11 03:44:59;;;;;;;0.00;0.00;;;;;;;6.35;57.79;100107.22;7353893;19;20014;-59
2023/03/11 03:47:24;;;;;;;0.00;0.00;;;;;;;6.33;57.84;100102.03;7357641;19;20800;-59
2023/03/11 03:49:49;;;;;;;0.10;0.10;;;;;;;6.34;57.42;100095.97;7353779;19;20494;-59
2023/03/11 03:52:15;;;;;;;0.00;0.00;;;;;;;6.34;57.42;100097.72;7350462;19;20018;-59
2023/03/11 03:54:40;;;;;;;0.00;0.00;;;;;;;6.32;57.48;100091.69;7355552;19;20010;-59
2023/03/11 03:57:06;;;;;;;0.00;0.00;;;;;;;6.33;57.48;100089.06;7356667;19;20023;-59
2023/03/11 03:59:31;;;;;;;0.10;0.10;;;;;;;6.34;57.34;100101.16;7355571;19;20017;-59
2023/03/11 04:01:57;;;;;;;0.00;0.00;;;;;;;6.33;57.75;100094.25;7354008;19;20678;-59
2023/03/11 04:04:22;;;;;;;0.00;0.00;;;;;;;6.35;57.70;100096.84;7345094;19;20002;-59
2023/03/11 04:06:48;;;;;;;0.00;0.00;;;;;;;6.35;57.47;100100.28;7348861;19;20479;-59
2023/03/11 04:09:13;;;;;;;0.00;0.00;;;;;;;6.35;57.19;100102.88;7355374;19;20712;-59
2023/03/11 04:11:39;;;;;;;0.00;0.00;;;;;;;6.35;57.61;100095.09;7354119;19;20010;-59
2023/03/11 04:14:04;;;;;;;0.00;0.00;;;;;;;6.37;57.74;100088.13;7358790;19;20035;-59
2023/03/11 04:16:31;;;;;;;0.00;0.00;;;;;;;6.37;58.04;100069.97;7355649;19;20472;-59
2023/03/11 04:18:56;;;;;;;0.00;0.00;;;;;;;6.37;58.67;100069.97;7343140;19;21110;-59
2023/03/11 04:21:22;;;;;;;0.00;0.00;;;;;;;6.38;58.73;100076.88;7345205;19;20488;-59
2023/03/11 04:23:48;;;;;;;0.00;0.00;;;;;;;6.38;58.57;100074.28;7351533;19;21226;-60
2023/03/11 04:26:13;;;;;;;0.00;0.00;;;;;;;6.38;58.55;100069.09;7356159;19;20066;-59
2023/03/11 04:28:39;;;;;;;0.00;0.00;;;;;;;6.37;58.32;100082.94;7359999;19;20039;-59
2023/03/11 04:31:04;;;;;;;0.00;0.00;;;;;;;6.38;58.32;100083.81;7352884;19;20021;-60
2023/03/11 04:33:30;;;;;;;0.00;0.00;;;;;;;6.38;58.30;100096.78;7359322;19;20010;-59
2023/03/11 04:35:56;;;;;;;0.00;0.00;;;;;;;6.36;57.64;100104.59;7353314;19;20014;-59
2023/03/11 04:38:21;;;;;;;0.00;0.00;;;;;;;6.16;56.90;100076.34;7352806;19;20495;-57
2023/03/11 04:40:47;;;;;;;0.00;0.00;;;;;;;6.35;56.91;100115.00;7356281;19;20015;-59
2023/03/11 04:43:12;;;;;;;0.10;0.10;;;;;;;6.35;57.15;100113.25;7357561;19;20022;-59
2023/03/11 04:45:39;;;;;;;0.00;0.00;;;;;;;6.34;57.21;100106.34;7355910;19;20010;-60
2023/03/11 04:48:04;;;;;;;0.00;0.00;;;;;;;6.19;57.65;100062.50;7356014;19;20664;-59
2023/03/11 04:50:30;;;;;;;0.00;0.00;;;;;;;6.29;57.55;100078.78;7357467;19;20006;-59
2023/03/11 04:52:56;;;;;;;0.00;0.00;;;;;;;6.32;57.86;100092.53;7353389;19;21045;-59
2023/03/11 04:55:21;;;;;;;0.00;0.00;;;;;;;6.34;57.60;100111.53;7355149;19;20003;-60
2023/03/11 04:57:47;;;;;;;0.00;0.00;;;;;;;6.34;58.17;100113.28;7357664;19;21232;-60
2023/03/11 05:00:14;;;;;;;0.00;0.00;;;;;;;6.34;57.99;100110.69;7355505;19;20742;-59
2023/03/11 05:02:40;;;;;;;0.00;0.00;;;;;;;6.34;58.38;100111.53;7356187;19;20051;-59
2023/03/11 05:05:08;;;;;;;0.00;0.00;;;;;;;6.33;58.46;100117.59;7357918;19;20048;-59
2023/03/11 05:07:34;;;;;;;0.03;0.03;;;;;;;6.33;58.26;100115.00;7357332;19;20029;-59
2023/03/11 05:10:00;;;;;;;0.00;0.00;;;;;;;6.31;59.25;100106.38;7356153;19;20010;-59
2023/03/11 05:12:25;;;;;;;0.00;0.00;;;;;;;6.33;58.87;100104.63;7353571;19;20032;-60
2023/03/11 05:14:51;;;;;;;0.00;0.00;;;;;;;6.34;57.46;100101.16;7357425;19;20670;-59
2023/03/11 05:17:18;;;;;;;0.00;0.00;;;;;;;6.34;57.81;100103.75;7347624;19;20464;-59
2023/03/11 05:19:43;;;;;;;0.00;0.00;;;;;;;6.34;58.09;100111.53;7356368;19;20010;-59
2023/03/11 05:22:09;;;;;;;0.00;0.00;;;;;;;6.30;58.71;100099.50;7356355;19;20980;-59
2023/03/11 05:24:34;;;;;;;0.10;0.10;;;;;;;6.26;59.52;100090.03;7353293;19;20818;-59
2023/03/11 05:27:00;;;;;;;0.00;0.00;;;;;;;6.21;59.98;100089.25;7356927;19;20788;-59
2023/03/11 05:29:26;;;;;;;0.00;0.00;;;;;;;6.17;60.40;100090.16;7354225;19;20010;-60
2023/03/11 05:31:52;;;;;;;0.00;0.00;;;;;;;5.65;60.10;100018.31;7353676;19;20012;-59
2023/03/11 05:34:17;;;;;;;0.00;0.00;;;;;;;6.10;59.95;100093.75;7355486;19;20033;-59
2023/03/11 05:36:43;;;;;;;0.00;0.00;;;;;;;6.05;60.37;100092.94;7353989;19;20089;-59
2023/03/11 05:39:09;;;;;;;0.00;0.00;;;;;;;6.03;61.54;100084.31;7354678;19;20436;-59
2023/03/11 05:41:35;;;;;;;0.00;0.00;;;;;;;6.00;61.38;100089.56;7348986;19;20026;-59
2023/03/11 05:44:01;;;;;;;0.00;0.00;;;;;;;5.98;61.12;100093.03;7358160;19;20009;-59
2023/03/11 05:46:26;;;;;;;0.00;0.00;;;;;;;5.91;60.99;100075.84;7354233;19;20002;-59
2023/03/11 05:48:52;;;;;;;0.00;0.00;;;;;;;5.83;60.90;100064.72;7357114;19;20466;-59
2023/03/11 05:51:17;;;;;;;0.00;0.00;;;;;;;5.92;61.54;100087.06;7352137;19;20010;-59
2023/03/11 05:53:47;;;;;;;0.00;0.00;;;;;;;5.79;61.59;100060.44;7358135;19;20010;-59
2023/03/11 05:56:13;;;;;;;0.00;0.00;;;;;;;5.87;62.02;100071.53;7353903;19;20105;-59
2023/03/11 05:58:39;;;;;;;0.00;0.00;;;;;;;5.88;62.41;100069.81;7355044;19;20038;-59
2023/03/11 06:01:13;;;;;;;0.00;0.00;;;;;;;5.90;61.77;100062.88;7355720;19;20014;-59
2023/03/11 06:03:39;;;;;;;0.00;0.00;;;;;;;5.90;61.94;100058.56;7354596;19;20010;-59
2023/03/11 06:06:07;;;;;;;0.10;0.10;;;;;;;5.90;61.35;100057.72;7353162;19;20034;-59
2023/03/11 06:08:35;;;;;;;0.00;0.00;;;;;;;5.90;60.80;100049.94;7357130;19;20022;-59
2023/03/11 06:11:03;;;;;;;0.00;0.00;;;;;;;5.89;61.04;100056.84;7355296;19;20036;-59
2023/03/11 06:13:28;;;;;;;0.00;0.00;;;;;;;5.88;61.50;100059.44;7355817;19;20047;-59
2023/03/11 06:15:53;;;;;;;0.00;0.00;;;;;;;5.86;60.79;100051.69;7357222;19;20348;-59
2023/03/11 06:18:19;;;;;;;0.00;0.00;;;;;;;5.85;60.91;100050.00;7355724;19;20018;-58
2023/03/11 06:20:44;;;;;;;0.10;0.10;;;;;;;5.83;60.61;100046.56;7353889;19;20002;-59
2023/03/11 06:23:10;;;;;;;0.00;0.00;;;;;;;5.82;60.62;100044.84;7356285;19;20346;-59
2023/03/11 06:25:35;;;;;;;0.10;0.10;;;;;;;5.75;60.54;100034.59;7355274;19;20046;-59
2023/03/11 06:28:00;;;;;;;0.10;0.10;;;;;;;5.79;60.34;100050.09;7350482;19;20017;-59
2023/03/11 06:30:26;;;;;;;0.10;0.10;;;;;;;5.75;59.48;100056.19;7355173;19;20006;-59
2023/03/11 06:32:51;;;;;;;0.00;0.00;;;;;;;5.75;60.67;100063.94;7353073;19;20018;-59
2023/03/11 06:35:17;;;;;;;0.00;0.00;;;;;;;5.73;61.17;100056.22;7356476;19;20031;-59
2023/03/11 06:37:42;;;;;;;0.08;0.08;;;;;;;5.73;61.10;100055.34;7351404;19;20111;-59
2023/03/11 06:40:09;;;;;;;0.08;0.08;;;;;;;5.73;61.34;100045.00;7357455;19;20014;-59
2023/03/11 06:42:34;;;;;;;0.00;0.00;;;;;;;5.72;61.44;100049.28;7345267;19;20007;-60
2023/03/11 06:45:00;;;;;;;0.00;0.00;;;;;;;5.71;62.57;100041.53;7355543;19;20007;-59
2023/03/11 06:47:26;;;;;;;0.00;0.00;;;;;;;5.72;61.94;100045.84;7353174;19;20018;-59
2023/03/11 06:49:52;;;;;;;0.00;0.00;;;;;;;5.72;62.85;100048.44;7351404;19;20018;-59
2023/03/11 06:52:18;;;;;;;0.00;0.00;;;;;;;5.72;62.57;100048.44;7349131;19;20025;-59
2023/03/11 06:54:43;;;;;;;0.00;0.00;;;;;;;5.72;62.51;100048.44;7353971;19;20014;-59
2023/03/11 06:57:09;;;;;;;0.00;0.00;;;;;;;5.72;62.86;100035.47;7355191;19;20048;-59
2023/03/11 06:59:35;;;;;;;0.00;0.00;;;;;;;5.72;63.75;100025.97;7342911;19;20018;-59
2023/03/11 07:02:02;;;;;;;0.00;0.00;;;;;;;5.61;63.30;99998.50;7348457;19;20053;-59
2023/03/11 07:04:28;;;;;;;0.00;0.00;;;;;;;5.75;63.10;100022.50;7359900;19;20630;-59
2023/03/11 07:06:54;;;;;;;0.00;0.00;;;;;;;5.76;64.03;100015.59;7357496;19;20011;-59
2023/03/11 07:09:21;;;;;;;0.00;0.00;;;;;;;5.77;64.36;100015.56;7359700;19;20017;-59
2023/03/11 07:11:47;;;;;;;0.00;0.00;;;;;;;5.78;64.10;100019.88;7358966;19;20061;-59
2023/03/11 07:14:13;;;;;;;0.00;0.00;;;;;;;5.76;64.37;100013.84;7356842;19;20713;-59
2023/03/11 07:16:39;;;;;;;0.00;0.00;;;;;;;5.70;64.31;99993.22;7354607;19;20014;-59
2023/03/11 07:19:05;;;;;;;0.00;0.00;;;;;;;5.80;64.28;100004.31;7353955;19;20030;-57
2023/03/11 07:21:31;;;;;;;0.08;0.08;;;;;;;5.87;63.85;100006.75;7351736;19;20018;-58
2023/03/11 07:23:59;;;;;;;0.00;0.00;;;;;;;5.89;63.16;100012.81;7358398;19;20029;-58
2023/03/11 07:26:25;;;;;;;;;;;;;;;5.95;60.83;100020.50;7357713;19;20024;-58
2023/03/11 07:28:51;;;;;;;0.00;0.00;;;;;;;5.94;63.01;100024.00;7358506;19;19923;-58
2023/03/11 07:31:27;;;;;;;0.00;0.00;;;;;;;5.98;62.63;100025.66;7352530;19;20022;-58
2023/03/11 07:33:52;;;;;;;0.00;0.00;;;;;;;5.91;63.31;100018.84;7355492;19;20348;-57
2023/03/11 07:36:21;;;;;;;0.03;0.03;;;;;;;5.98;63.76;100020.47;7354769;19;20019;-57
2023/03/11 07:38:47;;;;;;;0.10;0.10;;;;;;;6.00;63.40;100012.66;7356086;19;20035;-58
2023/03/11 07:41:14;;;;;;;0.00;0.00;;;;;;;6.04;63.39;100013.50;7355759;19;22639;-57
2023/03/11 07:43:43;;;;;;;0.00;0.00;;;;;;;6.07;62.62;100008.25;7351543;19;20048;-58
2023/03/11 07:46:11;;;;;;;0.10;0.10;;;;;;;6.10;61.62;100009.06;7358393;19;20018;-57
2023/03/11 07:48:38;;;;;;;0.00;0.00;;;;;;;6.12;61.08;100002.09;7356488;19;20027;-57
2023/03/11 07:51:12;;;;;;;0.00;0.00;;;;;;;6.15;61.26;100006.41;7354942;19;20056;-58
2023/03/11 07:53:41;;;;;;;0.00;0.00;;;;;;;6.17;60.82;99996.84;7355280;19;20018;-58
2023/03/11 07:56:08;;;;;;;0.00;0.00;;;;;;;6.10;60.87;99977.09;7355090;19;20031;-57
2023/03/11 07:58:34;;;;;;;0.10;0.10;;;;;;;6.21;60.42;99988.16;7353845;19;20010;-58
2023/03/11 08:01:08;;;;;;;0.10;0.10;;;;;;;6.23;60.17;99986.38;7357954;19;20837;-57
2023/03/11 08:03:34;;;;;;;0.00;0.00;;;;;;;6.23;61.65;99989.84;7354364;19;20007;-57
2023/03/11 08:05:59;;;;;;;0.03;0.03;;;;;;;6.25;61.64;100002.78;7355730;19;20018;-58
2023/03/11 08:08:25;;;;;;;0.00;0.00;;;;;;;6.17;61.28;99983.88;7356694;19;20057;-58
2023/03/11 08:10:51;;;;;;;0.00;0.00;;;;;;;6.26;61.02;100003.63;7357180;19;20022;-58
2023/03/11 08:13:16;;;;;;;0.00;0.00;;;;;;;6.31;62.14;99994.88;7354656;19;20019;-57
2023/03/11 08:15:41;;;;;;;0.00;0.00;;;;;;;6.36;61.49;99995.66;7350845;19;20020;-58
2023/03/11 08:18:07;;;;;;;0.00;0.00;;;;;;;6.38;61.76;99999.09;7352051;19;20011;-58
2023/03/11 08:20:32;;;;;;;0.00;0.00;;;;;;;6.43;61.14;99996.41;7356259;19;20006;-58
2023/03/11 08:22:58;;;;;;;0.00;0.00;;;;;;;6.45;62.34;99989.47;7352922;19;20022;-58
2023/03/11 08:25:23;;;;;;;0.00;0.00;;;;;;;6.47;61.77;99988.56;7355648;19;20006;-58
2023/03/11 08:27:49;;;;;;;0.00;0.00;;;;;;;6.48;61.36;99979.88;7354533;19;20018;-58
2023/03/11 08:30:14;;;;;;;0.00;0.00;;;;;;;6.48;62.48;99974.69;7351924;19;20018;-57
2023/03/11 08:32:40;;;;;;;0.00;0.00;;;;;;;6.46;61.06;99971.28;7338769;19;20049;-58
2023/03/11 08:35:05;;;;;;;0.00;0.00;;;;;;;6.52;61.95;99972.91;7358151;19;20018;-57
2023/03/11 08:37:31;;;;;;;0.00;0.00;;;;;;;6.56;62.33;99976.31;7356376;19;20010;-57
2023/03/11 08:39:56;;;;;;;0.10;0.10;;;;;;;6.58;62.10;99974.53;7355503;19;20356;-58
2023/03/11 08:42:22;;;;;;;0.00;0.00;;;;;;;6.63;61.45;99970.13;7354358;19;20047;-57
2023/03/11 08:44:47;;;;;;;0.00;0.00;;;;;;;6.67;62.02;99974.38;7351619;19;20056;-58
2023/03/11 08:47:12;;;;;;;0.00;0.00;;;;;;;6.72;61.45;99969.97;7351858;19;20109;-58
2023/03/11 08:49:38;;;;;;;0.00;0.00;;;;;;;6.78;61.13;99975.03;7353065;19;20013;-58
2023/03/11 08:52:04;;;;;;;0.00;0.00;;;;;;;6.80;61.21;99965.50;7353763;19;20764;-57
2023/03/11 08:54:30;;;;;;;0.00;0.00;;;;;;;6.84;60.93;99964.53;7352805;19;20011;-58
2023/03/11 08:56:57;;;;;;;0.00;0.00;;;;;;;6.87;60.59;99961.03;7352332;19;20291;-58
2023/03/11 08:59:23;;;;;;;0.00;0.00;;;;;;;6.74;60.65;99929.25;7354556;19;20009;-57
2023/03/11 09:01:48;;;;;;;0.00;0.00;;;;;;;6.88;60.65;99945.41;7350990;19;20018;-58
2023/03/11 09:04:14;;;;;;;0.10;0.10;;;;;;;6.92;60.35;99943.63;7353637;19;20010;-58
2023/03/11 09:06:43;;;;;;;0.00;0.00;;;;;;;6.84;60.36;99935.13;7352663;19;20014;-57
2023/03/11 09:09:10;;;;;;;0.00;0.00;;;;;;;6.82;60.56;99914.41;7351748;19;20010;-58
2023/03/11 09:11:36;;;;;;;;;;;;;;;7.02;60.05;99927.84;7354966;19;20056;-57
2023/03/11 09:14:02;;;;;;;0.00;0.00;;;;;;;7.04;60.38;99927.78;7352025;19;20463;-58
2023/03/11 09:16:28;;;;;;;0.00;0.00;;;;;;;7.01;60.37;99927.88;7351683;19;20458;-58
2023/03/11 09:18:53;;;;;;;0.00;0.00;;;;;;;7.08;59.78;99945.03;7352948;19;20006;-57
2023/03/11 09:21:19;;;;;;;0.00;0.00;;;;;;;7.09;60.02;99932.91;7352490;19;20014;-57
2023/03/11 09:23:45;;;;;;;0.00;0.00;;;;;;;7.08;59.79;99928.59;7356490;19;20018;-58
2023/03/11 09:26:11;;;;;;;0.00;0.00;;;;;;;7.11;59.99;99933.75;7352807;19;20093;-57
2023/03/11 09:28:36;;;;;;;0.03;0.03;;;;;;;7.14;59.63;99918.06;7355442;19;20789;-57
2023/03/11 09:31:02;;;;;;;0.10;0.10;;;;;;;7.15;59.73;99919.81;7352977;19;20019;-58
2023/03/11 09:33:27;;;;;;;0.00;0.00;;;;;;;7.17;60.15;99923.22;7351794;19;20105;-57
2023/03/11 09:35:53;;;;;;;0.00;0.00;;;;;;;7.21;59.60;99914.47;7341927;19;20021;-58
2023/03/11 09:38:18;;;;;;;0.00;0.00;;;;;;;7.23;59.78;99902.31;7355391;19;20094;-58
2023/03/11 09:40:52;;;;;;;0.10;0.10;;;;;;;7.28;59.81;99916.03;7353349;19;20533;-58
2023/03/11 09:43:45;;;;;;;0.00;0.00;;;;;;;7.35;59.59;99919.34;7354510;19;20023;-58
2023/03/11 09:46:47;;;;;;;0.00;0.00;;;;;;;7.38;59.43;99904.56;7253508;19;2004517;-58
2023/03/11 09:49:18;;;;;;;0.10;0.10;;;;;;;7.38;59.69;99907.16;7246834;19;2004392;-57
2023/03/11 09:51:55;;;;;;;0.00;0.00;;;;;;;7.42;60.15;99919.19;7347608;19;20093;-58
2023/03/11 09:54:22;;;;;;;0.00;0.00;;;;;;;7.32;59.91;99889.13;7354906;19;20638;-58
2023/03/11 09:56:47;;;;;;;0.00;0.00;;;;;;;7.48;59.41;99908.66;7355734;19;20355;-57
2023/03/11 09:59:21;;;;;;;0.03;0.03;;;;;;;7.52;59.99;99907.72;7355203;19;20014;-58
2023/03/11 10:01:49;;;;;;;0.00;0.00;;;;;;;7.56;59.66;99895.50;7353749;19;20592;-58
2023/03/11 10:04:19;;;;;;;0.00;0.00;;;;;;;7.59;59.90;99894.56;7353641;19;22394;-57
2023/03/11 10:06:46;;;;;;;0.10;0.10;;;;;;;7.62;59.82;99899.72;7349019;19;20011;-57
2023/03/11 10:09:11;;;;;;;0.00;0.00;;;;;;;7.66;59.72;99896.16;7347406;19;20018;-57
2023/03/11 10:11:56;;;;;;;0.00;0.00;;;;;;;7.71;59.76;99889.09;7347198;19;20074;-57
2023/03/11 10:14:59;;;;;;;0.00;0.00;;;;;;;7.76;59.75;99887.25;7352166;19;20019;-58
2023/03/11 10:17:48;;;;;;;0.00;0.00;;;;;;;7.78;59.62;99894.09;7250041;19;2004440;-57
2023/03/11 10:20:26;;;;;;;0.00;0.00;;;;;;;7.81;60.18;99895.78;7350682;19;20027;-59
2023/03/11 10:23:06;;;;;;;0.00;0.00;;;;;;;7.86;60.20;99913.88;7352232;19;20685;-57
2023/03/11 10:26:00;;;;;;;0.00;0.00;;;;;;;7.89;60.17;99888.63;7350607;19;20014;-58
2023/03/11 10:28:32;;;;;;;0.05;0.05;;;;;;;7.78;60.41;99849.91;7250546;19;2004443;-57
2023/03/11 10:31:26;;;;;;;0.05;0.05;;;;;;;7.94;59.88;99886.78;7352511;19;20388;-58
2023/03/11 10:34:00;;;;;;;0.00;0.00;;;;;;;7.92;60.99;99872.97;7250181;19;2004202;-58
2023/03/11 10:36:37;;;;;;;0.00;0.00;;;;;;;7.92;60.08;99896.38;7345121;19;20006;-58
2023/03/11 10:39:03;;;;;;;0.00;0.00;;;;;;;7.84;61.71;99890.50;7356339;19;20006;-58
2023/03/11 10:41:40;;;;;;;0.00;0.00;;;;;;;7.79;61.34;99888.00;7357386;19;20034;-58
2023/03/11 10:44:15;;;;;;;0.00;0.00;;;;;;;7.84;61.01;99889.63;7352001;19;20018;-58
2023/03/11 10:46:40;;;;;;;0.00;0.00;;;;;;;7.79;61.25;99887.16;7359983;19;20006;-58
2023/03/11 10:49:14;;;;;;;0.00;0.00;;;;;;;7.75;61.45;99886.38;7359727;19;21394;-58
2023/03/11 10:51:41;;;;;;;0.00;0.00;;;;;;;7.68;61.81;99904.75;7358673;19;20018;-58
2023/03/11 10:54:06;;;;;;;0.00;0.00;;;;;;;7.62;62.30;99899.72;7354463;19;20031;-58
2023/03/11 10:56:32;;;;;;;0.00;0.00;;;;;;;7.57;63.04;99906.75;7358634;19;20760;-58
2023/03/11 10:58:58;;;;;;;0.00;0.00;;;;;;;7.51;63.32;99897.34;7355209;19;20023;-58
2023/03/11 11:01:25;;;;;;;0.00;0.00;;;;;;;7.47;62.51;99886.19;7349812;19;20332;-57
2023/03/11 11:03:56;;;;;;;0.00;0.00;;;;;;;7.44;63.35;99894.03;7331137;19;20879;-57
2023/03/11 11:06:35;;;;;;;0.00;0.00;;;;;;;7.42;62.40;99879.38;7352878;19;20010;-58
2023/03/11 11:09:12;;;;;;;0.00;0.00;;;;;;;7.38;62.50;99876.00;7353992;19;20007;-58
2023/03/11 11:11:38;;;;;;;0.00;0.00;;;;;;;7.29;64.39;99865.81;7356221;19;20007;-58
2023/03/11 11:14:04;;;;;;;0.00;0.00;;;;;;;7.28;62.80;99872.75;7360197;19;20022;-58
2023/03/11 11:16:32;;;;;;;0.00;0.00;;;;;;;7.23;64.70;99871.16;7354519;19;20266;-58
2023/03/11 11:19:13;;;;;;;0.00;0.00;;;;;;;7.17;63.48;99866.94;7353209;19;20018;-57
2023/03/11 11:21:42;;;;;;;0.00;0.00;;;;;;;7.12;64.57;99878.31;7355465;19;20050;-57
2023/03/11 11:24:19;;;;;;;0.00;0.00;;;;;;;7.06;66.00;99879.31;7356659;19;20011;-58
2023/03/11 11:27:13;;;;;;;0.00;0.00;;;;;;;7.01;64.24;99874.22;7355250;19;20033;-58
2023/03/11 11:29:39;;;;;;;0.10;0.10;;;;;;;6.95;66.28;99871.75;7251714;19;2004548;-58
2023/03/11 11:32:23;;;;;;;0.00;0.00;;;;;;;6.95;65.66;99874.34;7355499;19;20011;-59
2023/03/11 11:35:00;;;;;;;0.00;0.00;;;;;;;6.91;65.58;99884.81;7349336;19;20906;-58
2023/03/11 11:37:30;;;;;;;0.00;0.00;;;;;;;6.84;65.78;99857.28;7352188;19;20943;-58
2023/03/11 11:40:10;;;;;;;0.00;0.00;;;;;;;6.81;65.96;99863.41;7349908;19;20029;-58